Time;durP1;ratioP1;P1;durP2;ratioP2;P2;SDS_P1;SDS_P2;PMS_P1;PMS_P2;Temp;Humidity;BMP_temperature;BMP_pressure;BME280_temperature;BME280_humidity;BME280_pressure;Samples;Min_cycle;Max_cycle;Signal;HPM_P1;HPM_P2
2021/07/24 00:01:04;;;;;;;17.33;12.85;;;;;;;16.76;68.64;98500.03;5033396;28;20040;-65
2021/07/24 00:03:30;;;;;;;14.55;12.95;;;;;;;16.72;68.67;98497.69;5033407;28;20068;-66
2021/07/24 00:05:55;;;;;;;15.95;12.07;;;;;;;16.72;69.45;98505.44;5035960;28;20025;-66
2021/07/24 00:08:21;;;;;;;15.10;12.30;;;;;;;16.72;70.32;98505.44;5029612;28;20075;-66
2021/07/24 00:10:47;;;;;;;14.52;12.40;;;;;;;16.66;70.48;98503.13;5029819;28;20036;-66
2021/07/24 00:13:12;;;;;;;16.00;13.02;;;;;;;16.67;71.05;98499.63;5031787;28;20496;-66
2021/07/24 00:15:38;;;;;;;13.02;11.57;;;;;;;16.58;71.47;98500.91;5035105;28;20393;-66
2021/07/24 00:18:03;;;;;;;12.77;11.48;;;;;;;16.56;71.47;98494.91;5032640;28;20041;-65
2021/07/24 00:20:29;;;;;;;12.63;11.32;;;;;;;16.49;71.52;98492.66;5032445;28;20043;-65
2021/07/24 00:22:54;;;;;;;16.40;12.75;;;;;;;16.42;72.20;98489.53;5032634;28;20041;-66
2021/07/24 00:25:19;;;;;;;14.52;13.02;;;;;;;16.40;72.21;98491.31;5028543;28;20033;-66
2021/07/24 00:27:45;;;;;;;15.18;13.57;;;;;;;16.32;72.42;98491.66;5030055;28;20030;-65
2021/07/24 00:30:11;;;;;;;16.85;14.13;;;;;;;16.28;72.67;98494.47;5033671;28;20033;-65
2021/07/24 00:32:36;;;;;;;14.98;13.13;;;;;;;16.25;72.64;98498.00;5026664;28;20124;-65
2021/07/24 00:35:02;;;;;;;15.00;12.73;;;;;;;16.25;72.56;98490.25;5032138;28;20029;-66
2021/07/24 00:37:27;;;;;;;14.20;12.80;;;;;;;16.18;72.41;98488.84;5030580;28;20028;-66
2021/07/24 00:39:53;;;;;;;13.88;12.40;;;;;;;16.14;72.86;98489.88;5030725;28;20056;-65
2021/07/24 00:42:21;;;;;;;13.50;12.07;;;;;;;16.11;72.39;98478.84;5031254;28;20028;-66
2021/07/24 00:44:48;;;;;;;14.77;13.20;;;;;;;16.05;72.66;98486.84;5034839;28;20112;-66
2021/07/24 00:47:27;;;;;;;15.70;13.13;;;;;;;16.09;73.55;98483.22;5034569;28;20333;-66
2021/07/24 00:49:55;;;;;;;15.75;12.73;;;;;;;16.04;73.05;98480.03;5034180;28;20386;-66
2021/07/24 00:52:21;;;;;;;15.15;13.38;;;;;;;16.02;73.57;98487.00;5035128;28;20431;-66
2021/07/24 00:54:46;;;;;;;15.60;13.88;;;;;;;15.97;73.38;98487.19;5030691;28;20139;-65
2021/07/24 00:57:13;;;;;;;17.10;13.43;;;;;;;15.97;73.87;98480.28;5027790;28;20080;-65
2021/07/24 00:59:39;;;;;;;15.30;13.05;;;;;;;15.96;73.31;98481.16;5033132;28;20029;-66
2021/07/24 01:02:04;;;;;;;18.27;15.50;;;;;;;15.97;73.29;98480.28;5030216;28;20306;-66
2021/07/24 01:04:30;;;;;;;16.42;14.55;;;;;;;15.99;73.23;98467.28;5027916;28;20064;-66
2021/07/24 01:06:56;;;;;;;16.60;14.27;;;;;;;15.93;73.23;98468.38;5031359;28;20573;-66
2021/07/24 01:09:24;;;;;;;16.70;14.85;;;;;;;15.86;73.78;98468.72;5028493;28;20061;-66
2021/07/24 01:11:50;;;;;;;20.42;15.00;;;;;;;15.84;74.25;98470.50;5030672;28;20033;-66
2021/07/24 01:14:15;;;;;;;18.98;16.98;;;;;;;15.83;74.11;98466.25;5031077;28;20021;-65
2021/07/24 01:16:41;;;;;;;18.35;15.07;;;;;;;15.82;74.57;98467.16;5032159;28;20151;-65
2021/07/24 01:19:06;;;;;;;17.45;14.65;;;;;;;15.77;75.27;98461.34;5029346;28;20032;-65
2021/07/24 01:21:32;;;;;;;17.88;14.82;;;;;;;15.74;75.43;98464.06;5030253;28;20038;-65
2021/07/24 01:23:57;;;;;;;17.77;15.20;;;;;;;15.69;74.73;98456.50;5029630;28;20775;-65
2021/07/24 01:26:28;;;;;;;15.70;13.70;;;;;;;15.69;74.88;98456.50;5030538;28;20033;-65
2021/07/24 01:28:54;;;;;;;16.60;13.55;;;;;;;15.62;75.48;98455.06;5030500;28;20623;-66
2021/07/24 01:31:20;;;;;;;16.90;13.25;;;;;;;15.60;74.80;98454.31;5028094;28;20041;-66
2021/07/24 01:33:46;;;;;;;16.33;14.60;;;;;;;15.60;75.02;98456.91;5029051;28;20045;-66
2021/07/24 01:36:11;;;;;;;15.05;13.45;;;;;;;15.60;75.02;98454.31;5031315;28;20025;-65
2021/07/24 01:38:38;;;;;;;15.57;13.57;;;;;;;15.62;75.04;98449.91;5029573;28;20037;-65
2021/07/24 01:41:08;;;;;;;15.00;13.50;;;;;;;15.68;74.54;98449.66;5024101;28;20128;-65
2021/07/24 01:43:34;;;;;;;16.83;13.07;;;;;;;15.60;74.51;98448.31;5029228;28;20389;-65
2021/07/24 01:45:59;;;;;;;15.23;13.52;;;;;;;15.58;74.64;98455.25;5028874;28;20110;-65
2021/07/24 01:48:37;;;;;;;15.90;14.23;;;;;;;15.58;74.61;98447.50;5023873;28;20025;-65
2021/07/24 01:53:49;;;;;;;16.05;13.73;;;;;;;15.54;75.00;98444.22;5035039;28;20044;-64
2021/07/24 01:56:17;;;;;;;16.98;13.65;;;;;;;15.54;74.33;98444.22;5032360;28;20034;-65
2021/07/24 01:58:43;;;;;;;17.02;13.85;;;;;;;15.52;74.44;98452.06;5032303;28;20034;-65
2021/07/24 02:01:10;;;;;;;16.88;13.02;;;;;;;15.53;74.51;98443.38;5026622;28;20676;-65
2021/07/24 02:03:50;;;;;;;13.63;12.23;;;;;;;15.53;74.51;98437.41;5029641;28;20028;-65
2021/07/24 02:06:17;;;;;;;18.10;13.85;;;;;;;15.56;73.96;98432.09;5028676;28;20116;-64
2021/07/24 02:08:48;;;;;;;14.35;12.65;;;;;;;15.49;74.69;98422.88;5029883;28;20048;-65
2021/07/24 02:11:15;;;;;;;13.63;11.85;;;;;;;15.42;74.87;98426.63;5027739;28;20037;-65
2021/07/24 02:13:42;;;;;;;14.82;13.18;;;;;;;15.41;74.95;98425.78;5028605;28;20160;-65
2021/07/24 02:16:07;;;;;;;15.35;12.80;;;;;;;15.38;74.62;98422.47;5024703;28;20124;-65
2021/07/24 02:18:33;;;;;;;16.45;13.82;;;;;;;15.32;75.14;98420.97;5028789;28;20132;-65
2021/07/24 02:21:00;;;;;;;14.75;13.02;;;;;;;15.33;75.73;98420.09;5029464;28;20626;-65
2021/07/24 02:23:26;;;;;;;14.10;12.60;;;;;;;15.33;75.14;98427.84;5025578;28;20156;-65
2021/07/24 02:25:51;;;;;;;15.40;12.52;;;;;;;15.30;75.99;98421.97;5026282;28;20144;-65
2021/07/24 02:28:17;;;;;;;15.25;13.10;;;;;;;15.26;75.25;98413.50;5030042;28;20037;-65
2021/07/24 02:30:42;;;;;;;16.42;13.57;;;;;;;15.26;75.53;98413.50;5028618;28;20048;-65
2021/07/24 02:33:08;;;;;;;15.20;13.68;;;;;;;15.27;75.76;98412.59;5027013;28;20037;-64
2021/07/24 02:35:33;;;;;;;18.23;13.82;;;;;;;15.24;75.33;98417.03;5026289;28;20040;-65
2021/07/24 02:37:59;;;;;;;16.95;13.93;;;;;;;15.22;75.42;98416.28;5028888;28;20061;-65
2021/07/24 02:40:24;;;;;;;16.98;14.00;;;;;;;15.18;75.57;98409.56;5031420;28;20033;-65
2021/07/24 02:42:50;;;;;;;13.90;12.40;;;;;;;15.21;75.44;98409.44;5026667;28;20044;-66
2021/07/24 02:45:15;;;;;;;14.65;13.18;;;;;;;15.21;75.86;98407.69;5027422;28;20125;-65
2021/07/24 02:47:41;;;;;;;19.42;15.25;;;;;;;15.16;75.70;98399.28;5026400;28;20037;-65
2021/07/24 02:50:07;;;;;;;15.70;13.40;;;;;;;15.19;75.38;98408.66;5023524;28;20620;-65
2021/07/24 02:52:32;;;;;;;15.93;13.57;;;;;;;15.16;76.15;98404.44;5033617;28;20037;-64
2021/07/24 02:54:58;;;;;;;16.45;14.00;;;;;;;15.15;76.52;98407.91;5030201;28;20334;-64
2021/07/24 02:57:23;;;;;;;16.40;13.18;;;;;;;15.13;76.60;98409.75;5029639;28;20112;-65
2021/07/24 02:59:48;;;;;;;16.20;13.63;;;;;;;15.09;76.58;98408.19;5027295;28;20025;-65
2021/07/24 03:02:15;;;;;;;17.25;13.18;;;;;;;15.10;76.85;98412.47;5031938;28;20084;-65
2021/07/24 03:04:41;;;;;;;15.40;13.75;;;;;;;15.08;77.06;98401.34;5031824;28;20047;-65
2021/07/24 03:07:07;;;;;;;15.25;13.52;;;;;;;15.06;77.26;98403.16;5032849;28;20026;-65
2021/07/24 03:09:32;;;;;;;18.02;14.10;;;;;;;15.05;77.57;98402.31;5022176;28;20038;-66
2021/07/24 03:11:58;;;;;;;15.63;13.82;;;;;;;15.01;76.92;98393.00;5028941;28;20052;-65
2021/07/24 03:14:23;;;;;;;16.77;14.23;;;;;;;14.96;77.27;98394.09;5031535;28;20136;-65
2021/07/24 03:16:48;;;;;;;16.10;13.80;;;;;;;14.95;77.05;98395.00;5028081;28;20033;-65
2021/07/24 03:19:14;;;;;;;19.13;14.65;;;;;;;14.97;76.56;98403.53;5031790;28;20025;-65
2021/07/24 03:21:39;;;;;;;17.75;14.88;;;;;;;14.99;76.85;98401.72;5028729;28;20017;-65
2021/07/24 03:24:05;;;;;;;16.48;14.52;;;;;;;14.99;77.38;98396.53;5032589;28;20080;-65
2021/07/24 03:26:30;;;;;;;16.35;14.57;;;;;;;14.98;76.85;98400.88;5034597;28;20148;-65
2021/07/24 03:28:55;;;;;;;16.98;13.65;;;;;;;14.98;76.76;98403.44;5033430;28;20032;-65
2021/07/24 03:31:21;;;;;;;17.65;14.18;;;;;;;14.98;77.31;98400.88;5034533;28;20028;-65
2021/07/24 03:33:46;;;;;;;16.23;14.27;;;;;;;14.96;76.96;98409.59;5034806;28;20569;-65
2021/07/24 03:36:11;;;;;;;16.15;14.00;;;;;;;14.96;77.30;98409.59;5032375;28;20037;-65
2021/07/24 03:38:37;;;;;;;16.33;12.95;;;;;;;14.97;77.57;98406.09;5031174;28;20029;-65
2021/07/24 03:41:04;;;;;;;15.88;12.55;;;;;;;15.02;76.70;98411.94;5028596;28;20056;-65
2021/07/24 03:43:30;;;;;;;18.25;13.93;;;;;;;15.02;77.07;98412.75;5031517;28;20059;-65
2021/07/24 03:45:56;;;;;;;15.27;12.95;;;;;;;15.01;77.16;98410.25;5029186;28;20041;-64
2021/07/24 03:48:21;;;;;;;16.95;13.85;;;;;;;14.98;77.39;98410.34;5032759;28;20025;-65
2021/07/24 03:50:46;;;;;;;16.70;14.02;;;;;;;15.02;77.04;98414.50;5030988;28;20036;-65
2021/07/24 03:53:12;;;;;;;14.95;13.38;;;;;;;15.03;77.07;98411.00;5035618;28;20029;-65
2021/07/24 03:55:37;;;;;;;15.38;13.75;;;;;;;15.03;76.81;98414.44;5032378;28;20083;-65
2021/07/24 03:58:03;;;;;;;16.67;13.98;;;;;;;15.06;76.77;98416.06;5034250;28;20291;-65
2021/07/24 04:00:34;;;;;;;15.05;13.43;;;;;;;15.09;76.87;98418.53;5034627;28;20033;-65
2021/07/24 04:03:02;;;;;;;19.15;14.73;;;;;;;15.18;76.92;98417.31;5028431;28;20041;-65
2021/07/24 04:05:27;;;;;;;15.68;12.95;;;;;;;15.22;76.63;98416.28;5032410;28;20028;-65
2021/07/24 04:07:53;;;;;;;16.10;13.60;;;;;;;15.28;76.78;98421.16;5029419;28;20111;-65
2021/07/24 04:10:18;;;;;;;18.08;14.82;;;;;;;15.36;76.46;98412.19;5031171;28;20473;-65
2021/07/24 04:12:43;;;;;;;17.15;14.32;;;;;;;15.52;76.33;98415.03;5030354;28;20038;-65
2021/07/24 04:15:09;;;;;;;16.77;14.80;;;;;;;15.61;75.44;98425.00;5032104;28;20446;-65
2021/07/24 04:17:35;;;;;;;17.30;13.60;;;;;;;15.77;74.77;98426.00;5035993;28;20082;-65
2021/07/24 04:20:02;;;;;;;15.75;13.30;;;;;;;15.91;74.46;98420.25;5033022;28;20034;-65
2021/07/24 04:22:28;;;;;;;17.17;14.68;;;;;;;16.07;74.09;98425.56;5035465;28;20286;-65
2021/07/24 04:24:53;;;;;;;17.13;13.05;;;;;;;16.24;73.45;98433.41;5033918;28;20056;-65
2021/07/24 04:27:19;;;;;;;18.02;15.23;;;;;;;16.37;73.22;98426.78;5027576;28;20414;-65
2021/07/24 04:29:44;;;;;;;18.88;14.48;;;;;;;16.52;71.98;98428.66;5025897;28;20117;-65
2021/07/24 04:32:09;;;;;;;16.05;13.27;;;;;;;16.63;71.94;98430.78;5031640;28;20030;-65
2021/07/24 04:34:35;;;;;;;15.45;13.88;;;;;;;16.76;71.64;98431.91;5032952;28;20324;-65
2021/07/24 04:37:00;;;;;;;16.65;13.35;;;;;;;16.83;71.38;98428.94;5026306;28;20044;-65
2021/07/24 04:39:26;;;;;;;16.10;12.88;;;;;;;16.96;70.42;98428.34;5030986;28;20098;-65
2021/07/24 04:41:51;;;;;;;15.13;12.70;;;;;;;17.06;69.99;98438.19;5032155;28;20060;-66
2021/07/24 04:44:17;;;;;;;19.48;16.00;;;;;;;17.18;69.90;98432.44;5030658;28;20458;-66
2021/07/24 04:46:42;;;;;;;17.15;13.18;;;;;;;17.23;69.78;98430.44;5032312;28;20026;-66
2021/07/24 04:49:07;;;;;;;15.68;12.77;;;;;;;17.30;69.88;98437.03;5032533;28;20268;-66
2021/07/24 04:51:36;;;;;;;16.02;13.95;;;;;;;17.43;69.50;98441.59;5027326;28;20416;-66
2021/07/24 04:54:08;;;;;;;17.83;13.15;;;;;;;17.47;69.36;98441.38;5026486;28;20355;-65
2021/07/24 04:56:33;;;;;;;16.50;13.05;;;;;;;17.58;68.81;98443.44;5029272;28;20056;-66
2021/07/24 04:58:59;;;;;;;17.15;13.93;;;;;;;17.64;68.23;98432.78;5030392;28;20375;-66
2021/07/24 05:01:25;;;;;;;15.00;13.38;;;;;;;17.78;68.13;98438.06;5029780;28;20032;-65
2021/07/24 05:03:50;;;;;;;16.00;13.43;;;;;;;17.80;67.35;98433.66;5030740;28;20021;-66
2021/07/24 05:06:16;;;;;;;18.05;15.43;;;;;;;17.84;67.03;98444.72;5029983;28;20037;-66
2021/07/24 05:08:42;;;;;;;18.80;15.02;;;;;;;17.95;67.17;98443.25;5029108;28;20029;-64
2021/07/24 05:11:07;;;;;;;21.92;15.98;;;;;;;17.97;66.82;98441.41;5030122;28;20033;-65
2021/07/24 05:13:33;;;;;;;15.85;13.93;;;;;;;18.11;67.29;98444.16;5031036;28;20116;-65
2021/07/24 05:15:58;;;;;;;18.35;14.50;;;;;;;18.31;67.21;98439.66;5028004;28;20409;-65
2021/07/24 05:18:24;;;;;;;18.52;14.13;;;;;;;18.50;66.68;98435.97;5029759;28;20060;-66
2021/07/24 05:20:49;;;;;;;17.00;14.40;;;;;;;18.54;65.01;98441.91;5030295;28;20025;-65
2021/07/24 05:23:15;;;;;;;17.50;14.52;;;;;;;18.76;64.36;98438.94;5026455;28;20315;-65
2021/07/24 05:25:43;;;;;;;17.60;13.77;;;;;;;18.94;62.87;98435.31;5032741;28;20450;-65
2021/07/24 05:28:09;;;;;;;15.90;14.30;;;;;;;18.96;63.02;98447.31;5026968;28;20351;-65
2021/07/24 05:30:34;;;;;;;15.82;14.23;;;;;;;19.12;62.20;98436.91;5029639;28;20038;-65
2021/07/24 05:33:00;;;;;;;16.25;14.45;;;;;;;19.29;61.94;98439.38;5031044;28;20048;-65
2021/07/24 05:35:26;;;;;;;16.55;14.85;;;;;;;19.43;61.86;98434.28;5029310;28;20034;-65
2021/07/24 05:37:51;;;;;;;17.35;14.90;;;;;;;19.48;61.55;98439.19;5027674;28;20104;-65
2021/07/24 05:40:17;;;;;;;16.95;13.95;;;;;;;19.66;61.34;98427.69;5020879;28;20036;-65
2021/07/24 05:42:42;;;;;;;15.98;12.88;;;;;;;19.75;61.29;98414.16;5030488;28;20370;-65
2021/07/24 05:45:08;;;;;;;18.50;13.75;;;;;;;19.98;60.71;98424.03;5029699;28;20077;-65
2021/07/24 05:47:34;;;;;;;18.27;14.25;;;;;;;19.99;59.79;98417.88;5025491;28;20420;-66
2021/07/24 05:50:00;;;;;;;15.80;14.05;;;;;;;20.18;59.31;98429.78;5027477;28;20028;-66
2021/07/24 05:52:26;;;;;;;15.50;13.85;;;;;;;20.32;59.20;98409.00;5031018;28;20326;-66
2021/07/24 05:54:52;;;;;;;15.05;13.45;;;;;;;20.31;59.13;98407.31;5026954;28;20034;-66
2021/07/24 05:57:17;;;;;;;16.45;13.93;;;;;;;20.45;58.34;98404.69;5029196;28;20040;-65
2021/07/24 05:59:43;;;;;;;17.58;14.68;;;;;;;20.60;57.80;98403.72;5029229;28;20479;-64
2021/07/24 06:02:12;;;;;;;14.95;13.25;;;;;;;20.65;57.44;98396.47;5033254;28;20029;-66
2021/07/24 06:04:43;;;;;;;17.88;14.63;;;;;;;20.65;58.27;98403.44;5026764;28;20026;-66
2021/07/24 06:07:08;;;;;;;15.68;13.20;;;;;;;20.84;58.33;98402.16;5028350;28;20091;-66
2021/07/24 06:09:34;;;;;;;14.45;12.55;;;;;;;20.96;56.91;98405.75;5028210;28;20033;-66
2021/07/24 06:11:59;;;;;;;14.98;13.20;;;;;;;21.01;56.42;98408.03;5028965;28;20034;-67
2021/07/24 06:14:25;;;;;;;15.18;13.57;;;;;;;20.93;56.13;98391.13;5028322;28;20028;-66
2021/07/24 06:16:51;;;;;;;18.20;12.70;;;;;;;21.13;56.36;98395.06;5030843;28;20069;-66
2021/07/24 06:19:17;;;;;;;16.23;13.80;;;;;;;21.15;55.24;98388.00;5027407;28;20044;-66
2021/07/24 06:21:42;;;;;;;14.27;12.70;;;;;;;21.27;55.31;98388.97;5028904;28;20683;-65
2021/07/24 06:24:08;;;;;;;14.07;12.68;;;;;;;21.36;55.92;98380.53;5030925;28;20563;-66
2021/07/24 06:26:38;;;;;;;13.40;11.52;;;;;;;21.64;56.34;98382.94;5029067;28;20034;-66
2021/07/24 06:29:07;;;;;;;14.63;12.98;;;;;;;21.49;55.11;98378.78;5027236;28;20030;-66
2021/07/24 06:31:33;;;;;;;17.20;13.52;;;;;;;21.32;56.03;98372.09;5030661;28;20188;-66
2021/07/24 06:34:02;;;;;;;15.90;13.43;;;;;;;21.61;54.77;98372.72;5026103;28;20033;-66
2021/07/24 06:36:28;;;;;;;15.65;12.77;;;;;;;21.83;53.78;98369.50;5026373;28;20790;-65
2021/07/24 06:38:53;;;;;;;15.40;12.10;;;;;;;21.62;54.21;98374.41;5028486;28;20057;-65
2021/07/24 06:41:19;;;;;;;15.55;13.05;;;;;;;21.73;54.06;98371.88;5029234;28;20350;-66
2021/07/24 06:43:44;;;;;;;15.88;12.82;;;;;;;21.77;53.83;98372.50;5027462;28;20029;-65
2021/07/24 06:46:11;;;;;;;17.83;14.85;;;;;;;21.62;53.60;98361.34;5030356;28;20036;-65
2021/07/24 06:48:37;;;;;;;16.10;11.80;;;;;;;21.91;53.25;98364.56;5028649;28;20031;-62
2021/07/24 06:51:08;;;;;;;17.65;13.15;;;;;;;21.85;53.15;98360.59;5028842;28;20299;-63
2021/07/24 06:53:35;;;;;;;14.05;12.70;;;;;;;22.12;52.68;98370.09;5024679;28;20367;-63
2021/07/24 06:56:01;;;;;;;12.63;11.07;;;;;;;21.97;52.81;98355.53;5024996;28;20155;-63
2021/07/24 06:58:26;;;;;;;15.63;12.55;;;;;;;22.04;52.38;98359.38;5021342;28;20040;-63
2021/07/24 07:00:51;;;;;;;14.18;12.38;;;;;;;22.13;52.31;98353.50;5029382;28;20029;-63
2021/07/24 07:03:17;;;;;;;14.45;11.52;;;;;;;22.02;53.01;98356.03;5027067;28;20292;-63
2021/07/24 07:05:42;;;;;;;13.32;12.02;;;;;;;22.21;52.47;98359.03;5028757;28;20044;-63
2021/07/24 07:08:08;;;;;;;15.15;11.57;;;;;;;22.16;52.98;98350.66;5027695;28;20025;-70
2021/07/24 07:10:33;;;;;;;14.75;12.48;;;;;;;22.08;53.26;98351.22;5026782;28;20065;-63
2021/07/24 07:12:59;;;;;;;15.30;13.75;;;;;;;22.21;52.85;98348.56;5025970;28;20443;-63
2021/07/24 07:15:26;;;;;;;13.52;12.13;;;;;;;22.46;52.74;98348.50;5028459;28;20137;-63
2021/07/24 07:17:52;;;;;;;18.08;12.63;;;;;;;22.54;52.10;98347.94;5026535;28;20283;-63
2021/07/24 07:20:17;;;;;;;15.63;12.25;;;;;;;22.67;52.14;98353.94;5030083;28;20032;-64
2021/07/24 07:22:43;;;;;;;14.85;12.55;;;;;;;22.52;52.34;98355.91;5025860;28;20024;-64
2021/07/24 07:25:09;;;;;;;12.70;11.40;;;;;;;22.82;52.00;98354.66;5028543;28;20045;-63
2021/07/24 07:27:42;;;;;;;15.48;12.55;;;;;;;23.08;51.56;98354.44;5023635;28;20186;-64
2021/07/24 07:30:09;;;;;;;12.95;11.40;;;;;;;23.27;51.82;98350.41;5029609;28;20037;-64
2021/07/24 07:32:35;;;;;;;13.93;11.88;;;;;;;22.98;51.65;98347.34;5026183;28;20035;-63
2021/07/24 07:35:00;;;;;;;15.77;12.13;;;;;;;23.13;51.41;98340.97;5028361;28;20032;-63
2021/07/24 07:37:26;;;;;;;13.15;11.77;;;;;;;23.33;51.08;98342.97;5029724;28;20029;-64
2021/07/24 07:39:51;;;;;;;16.27;12.48;;;;;;;23.42;50.96;98349.28;5026544;28;20029;-64
2021/07/24 07:42:16;;;;;;;14.68;11.73;;;;;;;23.42;50.80;98344.88;5025197;28;20104;-64
2021/07/24 07:44:42;;;;;;;14.48;11.32;;;;;;;23.70;50.86;98351.50;5028991;28;20378;-64
2021/07/24 07:47:07;;;;;;;14.38;11.55;;;;;;;23.89;50.63;98345.69;5023875;28;20038;-64
2021/07/24 07:49:33;;;;;;;17.33;11.70;;;;;;;24.04;49.91;98334.81;5028069;28;20037;-63
2021/07/24 07:51:58;;;;;;;15.45;11.30;;;;;;;24.12;49.41;98331.59;5026246;28;20044;-64
2021/07/24 07:54:23;;;;;;;12.45;10.80;;;;;;;24.19;51.20;98330.19;5025244;28;20152;-63
2021/07/24 07:56:49;;;;;;;12.13;10.90;;;;;;;24.30;50.86;98335.44;5027282;28;20037;-64
2021/07/24 07:59:14;;;;;;;13.32;10.40;;;;;;;24.45;49.34;98328.94;5028807;28;20040;-63
2021/07/24 08:01:40;;;;;;;11.13;10.02;;;;;;;24.81;49.77;98325.16;5026882;28;20087;-64
2021/07/24 08:04:05;;;;;;;12.23;10.38;;;;;;;25.08;50.23;98326.50;5031991;28;20025;-63
2021/07/24 08:06:31;;;;;;;12.02;9.20;;;;;;;25.33;50.49;98316.41;5027409;28;20041;-63
2021/07/24 08:08:56;;;;;;;10.48;9.45;;;;;;;25.52;49.33;98317.50;5031455;28;20409;-63
2021/07/24 08:11:23;;;;;;;9.52;8.45;;;;;;;25.76;49.82;98316.28;5029565;28;20172;-62
2021/07/24 08:13:48;;;;;;;12.95;10.27;;;;;;;25.84;49.22;98315.63;5031594;28;20034;-62
2021/07/24 08:16:16;;;;;;;10.85;9.45;;;;;;;26.01;49.11;98311.53;5032140;28;20335;-62
2021/07/24 08:18:42;;;;;;;10.48;9.25;;;;;;;26.25;49.04;98320.78;5026984;28;20427;-62
2021/07/24 08:21:08;;;;;;;14.07;10.45;;;;;;;26.26;48.87;98317.19;5030849;28;20116;-62
2021/07/24 08:23:34;;;;;;;11.35;10.27;;;;;;;26.11;49.40;98318.47;5030369;28;20149;-64
2021/07/24 08:25:59;;;;;;;10.90;9.82;;;;;;;26.24;48.26;98315.63;5030605;28;20026;-65
2021/07/24 08:28:26;;;;;;;11.70;10.40;;;;;;;26.18;48.64;98309.09;5030500;28;20021;-64
2021/07/24 08:30:52;;;;;;;14.38;10.18;;;;;;;26.29;48.15;98298.50;5029037;28;20076;-63
2021/07/24 08:33:17;;;;;;;15.55;10.18;;;;;;;26.38;47.79;98298.66;5032225;28;20148;-64
2021/07/24 08:35:43;;;;;;;11.13;10.02;;;;;;;26.60;48.33;98298.41;5028272;28;20034;-63
2021/07/24 08:38:09;;;;;;;10.55;9.65;;;;;;;26.66;47.66;98297.84;5029519;28;20112;-63
2021/07/24 08:40:35;;;;;;;10.23;9.23;;;;;;;26.70;48.72;98297.44;5028414;28;20057;-64
2021/07/24 08:43:04;;;;;;;11.50;10.13;;;;;;;26.64;47.45;98294.53;5027948;28;20040;-64
2021/07/24 08:45:31;;;;;;;10.95;9.85;;;;;;;26.49;48.08;98294.09;5029636;28;20025;-64
2021/07/24 08:48:00;;;;;;;11.20;9.70;;;;;;;26.86;48.53;98294.28;5034285;28;20196;-64
2021/07/24 08:50:26;;;;;;;10.80;9.45;;;;;;;26.90;47.32;98285.16;5031088;28;20084;-63
2021/07/24 08:52:53;;;;;;;11.15;10.15;;;;;;;26.72;47.76;98294.66;5031429;28;20021;-63
2021/07/24 08:55:22;;;;;;;10.07;9.18;;;;;;;26.82;47.40;98287.59;5030963;28;20120;-64
2021/07/24 08:57:50;;;;;;;9.98;9.02;;;;;;;26.89;47.36;98286.13;5030903;28;20112;-64
2021/07/24 09:00:17;;;;;;;11.95;10.07;;;;;;;27.02;48.10;98283.19;5029386;28;20395;-64
2021/07/24 09:02:46;;;;;;;11.52;10.15;;;;;;;27.03;47.75;98279.59;5029096;28;20148;-64
2021/07/24 09:05:17;;;;;;;11.65;9.80;;;;;;;27.00;47.93;98280.69;5031587;28;20024;-64
2021/07/24 09:07:47;;;;;;;12.40;10.10;;;;;;;27.36;47.41;98278.28;5030334;28;20045;-64
2021/07/24 09:10:13;;;;;;;11.05;9.93;;;;;;;27.12;47.13;98276.94;5030281;28;20083;-62
2021/07/24 09:12:44;;;;;;;11.75;10.60;;;;;;;27.10;46.79;98273.63;5029627;28;20298;-64
2021/07/24 09:15:11;;;;;;;13.23;10.52;;;;;;;27.12;47.61;98270.84;5031610;28;20029;-64
2021/07/24 09:17:37;;;;;;;11.40;10.23;;;;;;;27.30;47.28;98268.31;5028749;28;20112;-63
2021/07/24 09:20:04;;;;;;;11.57;9.52;;;;;;;27.45;47.27;98267.72;5029999;28;20327;-64
2021/07/24 09:22:33;;;;;;;11.48;9.98;;;;;;;27.78;46.08;98269.00;5030636;28;20036;-63
2021/07/24 09:25:02;;;;;;;10.20;9.25;;;;;;;27.98;45.19;98262.66;5029462;28;20570;-63
2021/07/24 09:27:27;;;;;;;10.93;9.93;;;;;;;28.17;44.40;98272.31;5033188;28;20079;-63
2021/07/24 09:29:53;;;;;;;10.20;9.30;;;;;;;28.40;44.55;98256.84;5027822;28;20422;-64
2021/07/24 09:32:18;;;;;;;11.48;9.57;;;;;;;28.40;44.65;98257.69;5027844;28;20037;-64
2021/07/24 09:34:46;;;;;;;10.52;9.55;;;;;;;28.51;44.65;98261.94;5029939;28;20040;-64
2021/07/24 09:37:31;;;;;;;11.98;10.68;;;;;;;28.75;43.58;98262.16;5026266;28;20084;-64
2021/07/24 09:40:18;;;;;;;11.38;10.38;;;;;;;28.83;42.53;98256.97;5027480;28;20535;-65
2021/07/24 09:42:44;;;;;;;12.35;10.77;;;;;;;28.69;43.77;98249.53;5028569;28;20156;-64
2021/07/24 09:45:10;;;;;;;10.90;9.95;;;;;;;28.86;43.77;98248.72;5033297;28;20037;-63
2021/07/24 09:47:36;;;;;;;12.82;10.55;;;;;;;28.98;43.01;98246.69;5031995;28;20030;-63
2021/07/24 09:50:15;;;;;;;11.07;10.07;;;;;;;29.10;42.33;98245.44;5030013;28;20044;-62
2021/07/24 09:52:53;;;;;;;11.85;10.63;;;;;;;29.15;42.24;98247.63;5026548;28;20064;-62
2021/07/24 09:55:22;;;;;;;12.45;11.18;;;;;;;29.10;42.74;98234.88;5027830;28;20025;-64
2021/07/24 09:57:49;;;;;;;11.95;10.75;;;;;;;29.22;42.11;98248.66;5030866;28;20176;-63
2021/07/24 10:00:22;;;;;;;10.45;9.45;;;;;;;29.36;41.39;98242.84;5028735;28;20025;-62
2021/07/24 10:03:05;;;;;;;11.98;10.88;;;;;;;29.34;41.91;98244.78;5029818;28;20127;-63
2021/07/24 10:05:38;;;;;;;11.90;10.85;;;;;;;29.44;43.24;98246.34;5027743;28;20024;-62
2021/07/24 10:08:13;;;;;;;11.80;10.70;;;;;;;29.60;42.87;98237.69;5032223;28;20383;-62
2021/07/24 10:10:40;;;;;;;12.60;10.68;;;;;;;29.87;41.44;98237.47;5027714;28;20775;-62
2021/07/24 10:13:11;;;;;;;11.60;10.45;;;;;;;29.57;41.33;98245.94;5030821;28;20061;-62
2021/07/24 10:15:39;;;;;;;12.90;11.68;;;;;;;29.60;41.43;98239.47;5028684;28;20064;-62
2021/07/24 10:18:07;;;;;;;11.32;10.32;;;;;;;29.93;41.54;98234.19;5032223;28;20104;-62
2021/07/24 10:20:37;;;;;;;11.57;10.63;;;;;;;29.76;41.76;98232.44;5029492;28;20054;-62
2021/07/24 10:23:03;;;;;;;11.38;10.25;;;;;;;29.68;42.02;98229.78;5028324;28;20057;-63
2021/07/24 10:25:29;;;;;;;12.15;11.15;;;;;;;29.66;41.57;98226.47;5027511;28;20409;-63
2021/07/24 10:27:57;;;;;;;11.15;10.15;;;;;;;29.49;41.10;98230.84;5026988;28;20033;-63
2021/07/24 10:30:30;;;;;;;12.32;11.05;;;;;;;29.58;41.63;98223.78;5030175;28;20021;-62
2021/07/24 10:32:58;;;;;;;11.15;10.25;;;;;;;29.60;42.13;98221.81;5027461;28;20417;-62
2021/07/24 10:35:40;;;;;;;13.15;9.75;;;;;;;29.85;41.08;98220.91;5028069;28;20029;-61
2021/07/24 10:38:31;;;;;;;12.13;10.93;;;;;;;29.53;42.59;98220.81;5030228;28;20094;-63
2021/07/24 10:41:21;;;;;;;10.98;9.98;;;;;;;29.54;41.88;98214.50;5029409;28;20016;-62
2021/07/24 10:43:58;;;;;;;12.65;11.55;;;;;;;29.43;41.85;98209.53;5025523;28;20026;-62
2021/07/24 10:46:43;;;;;;;11.93;10.70;;;;;;;29.43;41.59;98205.06;5026158;28;20033;-63
2021/07/24 10:49:34;;;;;;;11.00;10.00;;;;;;;29.41;41.79;98206.19;5027608;28;20036;-64
2021/07/24 10:52:05;;;;;;;11.57;10.48;;;;;;;29.71;44.51;98212.75;5029741;28;20352;-63
2021/07/24 10:55:04;;;;;;;11.77;10.70;;;;;;;29.79;41.73;98207.53;5026469;28;20021;-63
2021/07/24 10:58:01;;;;;;;11.57;10.38;;;;;;;29.42;40.91;98202.56;5030232;28;20090;-62
2021/07/24 11:00:34;;;;;;;11.98;10.82;;;;;;;29.55;42.22;98205.59;5026376;28;20036;-62
2021/07/24 11:03:00;;;;;;;11.35;10.35;;;;;;;29.88;40.59;98203.94;5030420;28;20102;-62
2021/07/24 11:05:32;;;;;;;12.63;10.43;;;;;;;30.07;40.79;98210.75;5027522;28;20458;-62
2021/07/24 11:07:58;;;;;;;11.50;10.52;;;;;;;30.19;40.01;98212.09;5025440;28;20037;-62
2021/07/24 11:10:25;;;;;;;10.98;10.10;;;;;;;30.05;41.28;98207.44;5028514;28;20030;-63
2021/07/24 11:12:51;;;;;;;14.20;11.10;;;;;;;29.71;40.96;98220.69;5032802;28;20049;-62
2021/07/24 11:15:21;;;;;;;12.18;11.05;;;;;;;29.71;41.10;98205.66;5026603;28;20121;-63
2021/07/24 11:18:24;;;;;;;11.43;10.30;;;;;;;29.62;40.64;98196.03;5029004;28;20021;-63
2021/07/24 11:20:51;;;;;;;12.52;11.20;;;;;;;29.86;40.57;98195.31;5023461;28;20017;-63